createdAt,value
2018-04-24T00:02:06.176Z,14.50
2018-04-24T00:04:34.404Z,14.50
2018-04-24T00:07:01.840Z,14.50
2018-04-24T00:09:29.278Z,14.50
2018-04-24T00:11:56.718Z,14.50
2018-04-24T00:14:24.144Z,14.50
2018-04-24T00:16:51.593Z,14.50
2018-04-24T00:19:19.788Z,14.40
2018-04-24T00:21:47.224Z,14.40
2018-04-24T00:24:15.488Z,14.40
2018-04-24T00:26:43.696Z,14.40
2018-04-24T00:29:11.124Z,14.40
2018-04-24T00:31:39.328Z,14.30
2018-04-24T00:34:06.766Z,14.30
2018-04-24T00:36:34.968Z,14.20
2018-04-24T00:39:02.402Z,14.20
2018-04-24T00:41:29.844Z,14.20
2018-04-24T00:43:58.041Z,14.10
2018-04-24T00:46:25.485Z,14.00
2018-04-24T00:48:52.923Z,14.10
2018-04-24T00:51:21.127Z,14.00
2018-04-24T00:53:48.576Z,14.00
2018-04-24T00:56:16.015Z,14.00
2018-04-24T00:58:44.226Z,13.90
2018-04-24T01:01:11.660Z,13.90
2018-04-24T01:03:39.108Z,13.90
2018-04-24T01:06:07.304Z,13.90
2018-04-24T01:08:34.748Z,13.90
2018-04-24T01:11:02.185Z,13.90
2018-04-24T01:13:30.388Z,13.80
2018-04-24T01:15:57.825Z,13.70
2018-04-24T01:18:26.028Z,13.70
2018-04-24T01:20:53.469Z,13.70
2018-04-24T01:23:20.908Z,13.70
2018-04-24T01:25:49.109Z,13.70
2018-04-24T01:28:16.552Z,13.70
2018-04-24T01:30:43.992Z,13.70
2018-04-24T01:33:12.210Z,13.70
2018-04-24T01:35:39.648Z,13.70
2018-04-24T01:38:07.092Z,13.70
2018-04-24T01:40:34.527Z,13.80
2018-04-24T01:43:02.745Z,13.70
2018-04-24T01:45:30.171Z,13.70
2018-04-24T01:47:58.393Z,13.60
2018-04-24T01:50:25.848Z,13.60
2018-04-24T01:52:53.316Z,13.50
2018-04-24T01:55:20.748Z,13.50
2018-04-24T01:57:48.200Z,13.50
2018-04-24T02:00:15.648Z,13.50
2018-04-24T02:02:43.097Z,13.50
2018-04-24T02:05:10.551Z,13.60
2018-04-24T02:07:38.744Z,13.40
2018-04-24T02:10:06.192Z,13.40
2018-04-24T02:12:33.619Z,13.40
2018-04-24T02:15:01.828Z,13.20
2018-04-24T02:17:29.268Z,13.20
2018-04-24T02:19:56.713Z,13.20
2018-04-24T02:22:24.916Z,13.30
2018-04-24T02:24:52.397Z,13.30
2018-04-24T02:27:19.804Z,13.30
2018-04-24T02:29:47.245Z,13.30
2018-04-24T02:32:15.456Z,13.20
2018-04-24T02:34:42.893Z,13.20
2018-04-24T02:37:11.079Z,13.20
2018-04-24T02:39:38.536Z,13.20
2018-04-24T02:42:05.974Z,13.20
2018-04-24T02:44:34.186Z,13.20
2018-04-24T02:47:01.629Z,13.20
2018-04-24T02:49:29.057Z,13.20
2018-04-24T02:51:57.257Z,13.10
2018-04-24T02:54:24.691Z,13.10
2018-04-24T02:56:52.132Z,13.10
2018-04-24T02:59:20.340Z,13.10
2018-04-24T03:01:47.776Z,13.10
2018-04-24T03:04:15.988Z,13.00
2018-04-24T03:06:43.421Z,12.90
2018-04-24T03:09:10.868Z,12.80
2018-04-24T03:11:38.312Z,12.70
2018-04-24T03:14:06.514Z,12.70
2018-04-24T03:16:33.956Z,12.70
2018-04-24T03:19:01.392Z,12.80
2018-04-24T03:21:29.599Z,12.90
2018-04-24T03:23:57.032Z,12.80
2018-04-24T03:26:25.240Z,13.00
2018-04-24T03:28:52.708Z,12.90
2018-04-24T03:31:20.174Z,13.00
2018-04-24T03:33:48.314Z,13.00
2018-04-24T03:36:15.757Z,13.00
2018-04-24T03:38:43.956Z,13.00
2018-04-24T03:41:11.400Z,13.00
2018-04-24T03:43:39.488Z,13.00
2018-04-24T03:46:06.936Z,13.00
2018-04-24T03:48:34.368Z,13.00
2018-04-24T03:51:01.812Z,13.00
2018-04-24T03:53:30.009Z,13.00
2018-04-24T03:55:57.462Z,13.00
2018-04-24T03:58:24.895Z,13.00
2018-04-24T04:00:53.101Z,13.00
2018-04-24T04:03:20.540Z,12.90
2018-04-24T04:05:47.980Z,13.00
2018-04-24T04:08:16.180Z,13.00
2018-04-24T04:10:43.627Z,13.00
2018-04-24T04:13:11.069Z,13.00
2018-04-24T04:15:39.277Z,13.00
2018-04-24T04:18:18.449Z,13.00
2018-04-24T04:20:57.668Z,13.10
2018-04-24T04:23:37.048Z,13.10
2018-04-24T04:26:06.508Z,13.00
2018-04-24T04:28:33.944Z,13.00
2018-04-24T04:31:01.396Z,13.00
2018-04-24T04:33:29.861Z,13.00
2018-04-24T04:35:57.307Z,13.00
2018-04-24T04:38:25.548Z,13.00
2018-04-24T04:40:52.993Z,13.00
2018-04-24T04:43:20.460Z,13.00
2018-04-24T04:45:47.867Z,13.10
2018-04-24T04:48:15.304Z,13.10
2018-04-24T04:50:42.745Z,13.10
2018-04-24T04:53:10.195Z,13.10
2018-04-24T04:55:37.626Z,13.10
2018-04-24T04:58:05.076Z,13.10
2018-04-24T05:00:32.524Z,13.10
2018-04-24T05:02:59.977Z,13.10
2018-04-24T05:05:27.419Z,13.20
2018-04-24T05:07:54.867Z,13.20
2018-04-24T05:10:22.305Z,13.20
2018-04-24T05:12:50.529Z,13.20
2018-04-24T05:15:17.976Z,13.20
2018-04-24T05:17:45.428Z,13.20
2018-04-24T05:20:12.923Z,13.20
2018-04-24T05:22:40.316Z,13.20
2018-04-24T05:25:07.757Z,13.20
2018-04-24T05:27:35.964Z,13.40
2018-04-24T05:30:03.409Z,13.40
2018-04-24T05:32:30.849Z,13.50
2018-04-24T05:34:59.044Z,13.80
2018-04-24T05:37:26.487Z,13.70
2018-04-24T05:39:54.703Z,13.90
2018-04-24T05:42:22.146Z,13.90
2018-04-24T05:44:49.576Z,14.10
2018-04-24T05:47:17.025Z,14.20
2018-04-24T05:49:45.228Z,14.30
2018-04-24T05:52:12.676Z,14.30
2018-04-24T05:54:40.120Z,14.40
2018-04-24T05:57:07.560Z,14.60
2018-04-24T05:59:34.992Z,14.70
2018-04-24T06:02:02.436Z,14.80
2018-04-24T06:04:29.872Z,14.90
2018-04-24T06:06:57.303Z,15.00
2018-04-24T06:09:24.745Z,15.10
2018-04-24T06:11:52.941Z,15.30
2018-04-24T06:14:20.405Z,15.30
2018-04-24T06:16:47.846Z,15.30
2018-04-24T06:19:16.053Z,15.50
2018-04-24T06:21:43.488Z,15.50
2018-04-24T06:24:10.936Z,15.60
2018-04-24T06:26:38.374Z,15.60
2018-04-24T06:29:06.576Z,15.80
2018-04-24T06:31:34.009Z,15.80
2018-04-24T06:34:02.217Z,16.10
2018-04-24T06:36:29.653Z,16.10
2018-04-24T06:38:57.092Z,16.20
2018-04-24T06:41:25.297Z,16.40
2018-04-24T06:43:52.736Z,16.30
2018-04-24T06:46:20.184Z,16.50
2018-04-24T06:48:48.385Z,16.70
2018-04-24T06:51:15.829Z,16.60
2018-04-24T06:53:43.788Z,16.80
2018-04-24T06:56:11.229Z,16.80
2018-04-24T06:58:39.437Z,16.80
2018-04-24T07:01:06.879Z,16.80
2018-04-24T07:03:34.317Z,16.90
2018-04-24T07:06:02.525Z,17.10
2018-04-24T07:08:29.964Z,17.10
2018-04-24T07:10:57.392Z,17.20
2018-04-24T07:13:25.596Z,17.40
2018-04-24T07:15:53.029Z,17.40
2018-04-24T07:18:21.239Z,17.40
2018-04-24T07:20:48.677Z,17.40
2018-04-24T07:23:16.104Z,17.40
2018-04-24T07:25:43.557Z,17.50
2018-04-24T07:28:10.993Z,17.60
2018-04-24T07:30:38.441Z,17.70
2018-04-24T07:33:05.867Z,17.80
2018-04-24T07:35:33.308Z,17.90
2018-04-24T07:38:00.762Z,18.00
2018-04-24T07:40:28.972Z,18.10
2018-04-24T07:42:56.402Z,18.10
2018-04-24T07:45:23.845Z,18.20
2018-04-24T07:47:52.039Z,18.30
2018-04-24T07:50:19.480Z,18.30
2018-04-24T07:52:47.671Z,18.20
2018-04-24T07:55:15.112Z,18.20
2018-04-24T07:57:42.547Z,18.00
2018-04-24T08:00:09.999Z,18.00
2018-04-24T08:02:37.428Z,17.90
2018-04-24T08:05:04.873Z,17.90
2018-04-24T08:07:32.343Z,17.80
2018-04-24T08:09:59.740Z,17.90
2018-04-24T08:12:27.941Z,18.20
2018-04-24T08:14:55.380Z,18.20
2018-04-24T08:17:22.818Z,18.30
2018-04-24T08:19:51.043Z,18.50
2018-04-24T08:22:18.467Z,18.50
2018-04-24T08:24:46.663Z,18.60
2018-04-24T08:27:14.096Z,18.60
2018-04-24T08:29:41.560Z,18.70
2018-04-24T08:32:09.004Z,18.70
2018-04-24T08:34:36.444Z,18.70
2018-04-24T08:37:03.876Z,18.80
2018-04-24T08:39:31.308Z,18.90
2018-04-24T08:41:58.744Z,18.80
2018-04-24T08:44:26.176Z,18.90
2018-04-24T08:46:54.390Z,19.20
2018-04-24T08:49:21.825Z,19.20
2018-04-24T08:51:49.270Z,19.30
2018-04-24T08:54:17.465Z,19.60
2018-04-24T08:56:44.912Z,19.60
2018-04-24T08:59:12.356Z,19.60
2018-04-24T09:01:40.573Z,19.60
2018-04-24T09:04:08.018Z,19.60
2018-04-24T09:06:35.460Z,19.50
2018-04-24T09:09:02.901Z,19.50
2018-04-24T09:11:30.348Z,19.50
2018-04-24T09:13:58.561Z,19.60
2018-04-24T09:16:26.000Z,19.50
2018-04-24T09:18:53.432Z,19.50
2018-04-24T09:21:21.640Z,19.40
2018-04-24T09:23:49.084Z,19.40
2018-04-24T09:26:16.528Z,19.30
2018-04-24T09:28:44.728Z,19.20
2018-04-24T09:31:12.171Z,19.20
2018-04-24T09:33:39.715Z,19.20
2018-04-24T09:36:07.060Z,19.00
2018-04-24T09:38:35.282Z,18.90
2018-04-24T09:41:02.725Z,18.90
2018-04-24T09:43:30.173Z,18.80
2018-04-24T09:45:57.655Z,18.80
2018-04-24T09:48:25.843Z,18.80
2018-04-24T09:50:53.240Z,18.80
2018-04-24T09:53:21.444Z,18.80
2018-04-24T09:55:48.880Z,18.80
2018-04-24T09:58:16.325Z,18.80
2018-04-24T10:00:43.757Z,18.80
2018-04-24T10:03:11.197Z,18.80
2018-04-24T10:05:38.630Z,18.90
2018-04-24T10:08:06.076Z,19.00
2018-04-24T10:10:33.507Z,19.20
2018-04-24T10:13:01.733Z,19.60
2018-04-24T10:15:29.158Z,19.60
2018-04-24T10:17:56.596Z,19.70
2018-04-24T10:20:24.801Z,19.80
2018-04-24T10:22:52.244Z,19.80
2018-04-24T10:25:19.725Z,19.80
2018-04-24T10:27:47.165Z,19.70
2018-04-24T10:30:14.596Z,19.60
2018-04-24T10:32:42.824Z,19.90
2018-04-24T10:35:10.262Z,19.90
2018-04-24T10:37:37.699Z,20.10
2018-04-24T10:40:05.137Z,20.20
2018-04-24T10:42:33.333Z,20.10
2018-04-24T10:45:00.795Z,20.10
2018-04-24T10:47:28.240Z,20.10
2018-04-24T10:49:55.679Z,20.10
2018-04-24T10:52:23.904Z,20.90
2018-04-24T10:54:51.346Z,20.80
2018-04-24T10:57:18.776Z,21.40
2018-04-24T10:59:46.216Z,21.80
2018-04-24T11:02:14.423Z,21.90
2018-04-24T11:04:41.865Z,21.80
2018-04-24T11:07:09.296Z,21.50
2018-04-24T11:09:37.517Z,20.90
2018-04-24T11:12:04.961Z,20.90
2018-04-24T11:14:32.426Z,20.90
2018-04-24T11:16:59.828Z,21.20
2018-04-24T11:19:27.264Z,21.30
2018-04-24T11:21:54.697Z,21.60
2018-04-24T11:24:22.137Z,21.70
2018-04-24T11:26:49.596Z,21.50
2018-04-24T11:29:17.785Z,21.30
2018-04-24T11:31:45.216Z,21.30
2018-04-24T11:34:12.666Z,21.40
2018-04-24T11:36:40.172Z,21.70
2018-04-24T11:39:08.325Z,22.80
2018-04-24T11:41:38.576Z,22.70
2018-04-24T11:44:06.103Z,23.10
2018-04-24T11:46:33.468Z,23.10
2018-04-24T11:49:00.922Z,22.90
2018-04-24T11:51:28.364Z,22.70
2018-04-24T11:53:55.796Z,22.70
2018-04-24T11:56:24.010Z,23.70
2018-04-24T11:58:51.616Z,23.70
2018-04-24T12:01:19.831Z,23.80
2018-04-24T12:03:47.264Z,23.80
2018-04-24T12:06:15.480Z,23.00
2018-04-24T12:08:42.924Z,23.00
2018-04-24T12:11:10.368Z,22.60
2018-04-24T12:13:37.798Z,22.50
2018-04-24T12:16:06.008Z,22.40
2018-04-24T12:18:33.439Z,22.40
2018-04-24T12:21:00.880Z,22.40
2018-04-24T12:23:29.077Z,22.10
2018-04-24T12:25:56.515Z,22.10
2018-04-24T12:28:24.720Z,21.90
2018-04-24T12:30:52.160Z,21.90
2018-04-24T12:33:19.589Z,21.80
2018-04-24T12:35:47.032Z,21.90
2018-04-24T12:38:14.468Z,21.90
2018-04-24T12:40:41.912Z,21.90
2018-04-24T12:43:09.354Z,21.60
2018-04-24T12:45:36.795Z,21.50
2018-04-24T12:48:04.220Z,21.40
2018-04-24T12:50:31.672Z,21.30
2018-04-24T12:52:59.112Z,21.20
2018-04-24T12:55:26.547Z,21.20
2018-04-24T12:57:54.056Z,21.00
2018-04-24T13:00:21.425Z,21.00
2018-04-24T13:02:49.633Z,21.00
2018-04-24T13:05:17.068Z,21.00
2018-04-24T13:07:44.517Z,21.10
2018-04-24T13:10:12.715Z,21.30
2018-04-24T13:12:40.161Z,21.30
2018-04-24T13:15:07.591Z,21.30
2018-04-24T13:17:35.800Z,21.40
2018-04-24T13:20:03.237Z,21.40
2018-04-24T13:22:30.672Z,21.50
2018-04-24T13:24:58.872Z,21.60
2018-04-24T13:27:26.328Z,21.60
2018-04-24T13:29:53.756Z,21.70
2018-04-24T13:32:21.973Z,21.70
2018-04-24T13:34:49.411Z,21.70
2018-04-24T13:37:16.924Z,21.80
2018-04-24T13:39:45.050Z,22.10
2018-04-24T13:42:12.497Z,22.10
2018-04-24T13:44:40.683Z,22.10
2018-04-24T13:47:08.134Z,22.10
2018-04-24T13:49:35.565Z,22.00
2018-04-24T13:52:03.769Z,22.00
2018-04-24T13:54:31.196Z,22.00
2018-04-24T13:56:59.408Z,22.10
2018-04-24T13:59:26.840Z,22.10
2018-04-24T14:01:54.292Z,22.20
2018-04-24T14:04:22.484Z,22.20
2018-04-24T14:06:49.909Z,22.20
2018-04-24T14:09:18.120Z,22.20
2018-04-24T14:11:45.547Z,22.20
2018-04-24T14:14:13.759Z,22.30
2018-04-24T14:16:41.204Z,22.20
2018-04-24T14:19:08.635Z,22.30
2018-04-24T14:21:36.942Z,22.60
2018-04-24T14:24:04.273Z,22.60
2018-04-24T14:26:31.704Z,22.90
2018-04-24T14:28:59.916Z,23.10
2018-04-24T14:31:27.348Z,23.00
2018-04-24T14:33:55.561Z,23.50
2018-04-24T14:36:22.992Z,23.50
2018-04-24T14:38:50.444Z,24.00
2018-04-24T14:41:17.873Z,24.50
2018-04-24T14:43:45.322Z,25.00
2018-04-24T14:46:12.759Z,25.90
2018-04-24T14:48:40.229Z,27.20
2018-04-24T14:51:07.657Z,28.90
2018-04-24T14:53:35.093Z,30.30
2018-04-24T14:56:02.531Z,31.20
2018-04-24T14:58:30.741Z,32.10
2018-04-24T15:00:58.172Z,32.10
2018-04-24T15:03:25.609Z,33.10
2018-04-24T15:05:53.810Z,33.50
2018-04-24T15:08:21.243Z,33.40
2018-04-24T15:10:49.503Z,33.70
2018-04-24T15:13:16.884Z,33.70
2018-04-24T15:15:45.080Z,35.60
2018-04-24T15:18:12.525Z,35.50
2018-04-24T15:20:39.963Z,36.90
2018-04-24T15:23:08.161Z,38.60
2018-04-24T15:25:35.601Z,38.50
2018-04-24T15:28:03.080Z,39.20
2018-04-24T15:30:31.269Z,39.50
2018-04-24T15:32:58.700Z,39.50
2018-04-24T15:35:26.152Z,39.70
2018-04-24T15:37:53.628Z,39.50
2018-04-24T15:40:21.061Z,39.20
2018-04-24T15:42:48.508Z,39.10
2018-04-24T15:45:16.714Z,36.40
2018-04-24T15:47:44.150Z,36.40
2018-04-24T15:50:11.596Z,34.30
2018-04-24T15:52:39.029Z,32.70
2018-04-24T15:55:06.464Z,31.30
2018-04-24T15:57:33.896Z,30.20
2018-04-24T16:00:01.333Z,29.30
2018-04-24T16:02:28.777Z,28.70
2018-04-24T16:04:56.227Z,28.00
2018-04-24T16:07:24.420Z,27.20
2018-04-24T16:09:51.857Z,27.10
2018-04-24T16:12:20.080Z,26.40
2018-04-24T16:14:47.520Z,26.40
2018-04-24T16:17:14.961Z,26.10
2018-04-24T16:19:42.423Z,25.80
2018-04-24T16:22:09.862Z,25.50
2018-04-24T16:24:38.063Z,25.10
2018-04-24T16:27:05.525Z,25.00
2018-04-24T16:29:32.987Z,24.90
2018-04-24T16:32:00.413Z,24.80
2018-04-24T16:34:27.863Z,24.70
2018-04-24T16:36:55.297Z,24.60
2018-04-24T16:39:23.497Z,24.40
2018-04-24T16:41:50.946Z,24.30
2018-04-24T16:44:18.380Z,24.20
2018-04-24T16:46:45.843Z,24.20
2018-04-24T16:49:14.050Z,24.10
2018-04-24T16:51:41.497Z,24.10
2018-04-24T16:54:08.929Z,23.90
2018-04-24T16:56:37.150Z,23.70
2018-04-24T16:59:04.588Z,23.70
2018-04-24T17:01:32.028Z,23.70
2018-04-24T17:04:00.236Z,23.60
2018-04-24T17:06:27.687Z,23.60
2018-04-24T17:08:55.132Z,23.50
2018-04-24T17:11:22.611Z,23.50
2018-04-24T17:13:50.035Z,23.40
2018-04-24T17:16:18.242Z,23.00
2018-04-24T17:18:45.676Z,23.00
2018-04-24T17:21:13.130Z,22.80
2018-04-24T17:23:40.564Z,22.60
2018-04-24T17:26:08.764Z,22.30
2018-04-24T17:28:36.211Z,22.30
2018-04-24T17:31:03.644Z,22.30
2018-04-24T17:33:31.853Z,22.00
2018-04-24T17:35:59.299Z,22.00
2018-04-24T17:38:26.760Z,22.00
2018-04-24T17:40:55.019Z,21.80
2018-04-24T17:43:22.389Z,21.80
2018-04-24T17:45:49.840Z,21.70
2018-04-24T17:48:17.280Z,21.70
2018-04-24T17:50:45.492Z,21.50
2018-04-24T17:53:12.949Z,21.50
2018-04-24T17:55:40.372Z,21.40
2018-04-24T17:58:07.813Z,21.20
2018-04-24T18:00:35.248Z,21.10
2018-04-24T18:03:02.695Z,21.00
2018-04-24T18:05:30.136Z,21.00
2018-04-24T18:07:57.585Z,20.90
2018-04-24T18:10:25.013Z,20.80
2018-04-24T18:12:53.217Z,20.70
2018-04-24T18:15:20.649Z,20.70
2018-04-24T18:17:48.088Z,20.60
2018-04-24T18:20:15.528Z,20.50
2018-04-24T18:22:42.973Z,20.50
2018-04-24T18:25:10.428Z,20.40
2018-04-24T18:27:37.889Z,20.30
2018-04-24T18:30:05.321Z,20.30
2018-04-24T18:32:32.782Z,20.30
2018-04-24T18:35:00.228Z,20.20
2018-04-24T18:37:27.677Z,20.20
2018-04-24T18:39:55.108Z,20.10
2018-04-24T18:42:22.543Z,20.00
2018-04-24T18:44:49.984Z,20.00
2018-04-24T18:47:17.418Z,19.90
2018-04-24T18:49:44.852Z,19.80
2018-04-24T18:52:12.284Z,19.70
2018-04-24T18:54:39.725Z,19.50
2018-04-24T18:57:07.919Z,19.40
2018-04-24T18:59:35.360Z,19.40
2018-04-24T19:02:03.567Z,19.20
2018-04-24T19:04:31.005Z,19.20
2018-04-24T19:06:58.449Z,19.10
2018-04-24T19:09:26.649Z,18.90
2018-04-24T19:11:54.079Z,18.90
2018-04-24T19:14:24.184Z,18.70
2018-04-24T19:16:52.396Z,18.60
2018-04-24T19:19:25.704Z,18.60
2018-04-24T19:21:53.154Z,18.60
2018-04-24T19:24:26.241Z,18.50
2018-04-24T19:26:53.672Z,18.40
2018-04-24T19:29:21.881Z,18.20
2018-04-24T19:31:54.979Z,18.20
2018-04-24T19:34:22.444Z,18.10
2018-04-24T19:36:49.880Z,17.90
2018-04-24T19:39:22.932Z,17.90
2018-04-24T19:41:51.132Z,17.90
2018-04-24T19:44:18.580Z,17.80
2018-04-24T19:46:46.018Z,17.80
2018-04-24T19:49:20.032Z,17.70
2018-04-24T19:51:47.442Z,17.70
2018-04-24T19:54:14.888Z,17.70
2018-04-24T19:56:42.316Z,17.60
2018-04-24T19:59:09.752Z,17.50
2018-04-24T20:01:37.961Z,17.40
2018-04-24T20:04:05.402Z,17.40
2018-04-24T20:06:32.835Z,17.30
2018-04-24T20:09:01.044Z,17.10
2018-04-24T20:11:28.479Z,17.10
2018-04-24T20:13:55.910Z,17.00
2018-04-24T20:16:23.360Z,16.90
2018-04-24T20:18:50.801Z,16.80
2018-04-24T20:21:18.249Z,16.70
2018-04-24T20:23:45.723Z,16.60
2018-04-24T20:26:13.144Z,16.50
2018-04-24T20:28:40.564Z,16.50
2018-04-24T20:31:08.772Z,16.50
2018-04-24T20:33:36.209Z,16.50
2018-04-24T20:36:03.676Z,16.50
2018-04-24T20:38:31.112Z,16.50
2018-04-24T20:40:58.558Z,16.40
2018-04-24T20:43:26.765Z,16.40
2018-04-24T20:45:54.196Z,16.40
2018-04-24T20:48:21.630Z,16.40
2018-04-24T20:50:49.066Z,16.40
2018-04-24T20:53:16.517Z,16.40
2018-04-24T20:55:43.943Z,16.30
2018-04-24T20:58:11.373Z,16.30
2018-04-24T21:00:39.662Z,16.30
2018-04-24T21:03:07.008Z,16.30
2018-04-24T21:05:34.449Z,16.20
2018-04-24T21:08:02.663Z,16.10
2018-04-24T21:10:30.118Z,16.10
2018-04-24T21:12:57.541Z,16.00
2018-04-24T21:15:25.745Z,15.90
2018-04-24T21:17:53.187Z,15.90
2018-04-24T21:20:20.645Z,15.90
2018-04-24T21:22:48.080Z,15.90
2018-04-24T21:25:16.289Z,15.90
2018-04-24T21:27:43.729Z,15.90
2018-04-24T21:30:11.169Z,15.90
2018-04-24T21:32:39.381Z,15.90
2018-04-24T21:35:06.837Z,15.90
2018-04-24T21:37:34.261Z,15.90
2018-04-24T21:40:02.462Z,15.70
2018-04-24T21:42:29.921Z,15.70
2018-04-24T21:44:57.348Z,15.70
2018-04-24T21:47:25.553Z,15.50
2018-04-24T21:49:52.987Z,15.50
2018-04-24T21:52:20.477Z,15.40
2018-04-24T21:54:47.916Z,15.40
2018-04-24T21:57:15.380Z,15.40
2018-04-24T21:59:42.819Z,15.50
2018-04-24T22:02:10.252Z,15.50
2018-04-24T22:04:39.960Z,15.40
2018-04-24T22:07:07.392Z,15.40
2018-04-24T22:09:34.827Z,15.40
2018-04-24T22:12:02.265Z,15.40
2018-04-24T22:14:29.700Z,15.30
2018-04-24T22:16:57.148Z,15.30
2018-04-24T22:19:25.363Z,15.20
2018-04-24T22:21:52.800Z,15.20
2018-04-24T22:24:20.229Z,15.10
2018-04-24T22:26:48.428Z,15.00
2018-04-24T22:29:15.873Z,15.00
2018-04-24T22:31:43.319Z,15.00
2018-04-24T22:34:11.520Z,15.00
2018-04-24T22:36:38.953Z,14.90
2018-04-24T22:39:07.161Z,14.90
2018-04-24T22:41:34.612Z,14.90
2018-04-24T22:44:02.052Z,14.80
2018-04-24T22:46:29.491Z,14.80
2018-04-24T22:48:57.700Z,14.80
2018-04-24T22:51:25.133Z,14.80
2018-04-24T22:53:52.568Z,14.90
2018-04-24T22:56:20.778Z,14.80
2018-04-24T22:58:48.213Z,14.80
2018-04-24T23:01:16.420Z,14.70
2018-04-24T23:03:43.864Z,14.70
2018-04-24T23:06:11.302Z,14.70
2018-04-24T23:08:39.504Z,14.70
2018-04-24T23:11:18.680Z,14.70
2018-04-24T23:13:58.112Z,14.70
2018-04-24T23:16:37.521Z,14.60
2018-04-24T23:19:16.925Z,14.60
2018-04-24T23:21:43.868Z,14.50
2018-04-24T23:24:11.308Z,14.40
2018-04-24T23:26:39.514Z,14.20
2018-04-24T23:29:06.956Z,14.20
2018-04-24T23:31:34.385Z,14.20
2018-04-24T23:34:01.828Z,14.20
2018-04-24T23:36:29.268Z,14.20
2018-04-24T23:38:56.711Z,14.30
2018-04-24T23:41:24.140Z,14.30
2018-04-24T23:43:51.582Z,14.30
2018-04-24T23:46:19.784Z,14.30
2018-04-24T23:48:47.241Z,14.30
2018-04-24T23:51:14.670Z,14.30
2018-04-24T23:53:42.872Z,14.00
2018-04-24T23:56:10.320Z,14.10
2018-04-24T23:58:37.756Z,14.00
